Flight Track Log - Related Links

Times and Time Zones

All times are in EDT time to prevent confusion due to time zone crossing. See the N885WT flight status page for this flight to view local times or setup timezone preferences in your user account.

Time Position Orientation Groundspeed Altitude Reporting Facility
EDT Latitude Longitude Course Direction KTS MPH feet Rate Location/Type
Thu 02:36:00 PM 68.9334 -62.8342 267° West  Level FlightAware Approximate
Thu 02:37:00 PM 68.9255 -63.1888 267° West  Level FlightAware Approximate
Thu 02:38:00 PM 68.8960 -63.5315 257° West  Level Estimated
Thu 02:39:00 PM 68.8659 -63.8733 256° West  Level Estimated
Thu 02:40:00 PM 68.8351 -64.2141 256° West  Level Estimated
Thu 02:41:00 PM 68.8036 -64.5540 256° West  Level Estimated
Thu 02:42:00 PM 68.7714 -64.8930 255° West  Level Estimated
Thu 02:43:00 PM 68.7385 -65.2309 255° West  Level Estimated
Thu 02:44:00 PM 68.7050 -65.5678 255° West  Level Estimated
Thu 02:45:00 PM 68.6708 -65.9037 255° West  Level Estimated
Thu 02:46:00 PM 68.6360 -66.2386 254° West  Level Estimated
Thu 02:47:00 PM 68.6004 -66.5724 254° West  Level Estimated
Thu 02:48:00 PM 68.5643 -66.9052 254° West  Level Estimated
Thu 02:49:00 PM 68.5274 -67.2369 253° West  Level Estimated
Thu 02:50:00 PM 68.4900 -67.5675 253° West  Level Estimated
Thu 02:51:00 PM 68.4518 -67.8969 253° West  Level Estimated
Thu 02:52:00 PM 68.4130 -68.2253 252° West  Level Estimated
Thu 02:53:00 PM 68.3736 -68.5525 252° West  Level Estimated
Thu 02:54:00 PM 68.3336 -68.8786 252° West  Level Estimated
Thu 02:55:00 PM 68.2929 -69.2035 251° West  Level Estimated
Thu 02:56:00 PM 68.2516 -69.5273 251° West  Level Estimated
Thu 02:57:00 PM 68.2096 -69.8499 251° West  Level Estimated
Thu 02:58:00 PM 68.1670 -70.1713 251° West  Level Estimated
Thu 02:59:00 PM 68.1238 -70.4915 250° West  Level Estimated
Thu 03:00:00 PM 68.0800 -70.8105 250° West  Level Estimated
Thu 03:01:00 PM 68.0356 -71.1283 250° West  Level Estimated
Thu 03:02:00 PM 67.9906 -71.4448 249° West  Level Estimated
Thu 03:03:00 PM 67.9449 -71.7601 249° West  Level Estimated
Thu 03:04:00 PM 67.8987 -72.0742 249° West  Level Estimated
Thu 03:05:00 PM 67.8519 -72.3870 248° West  Level Estimated
Thu 03:06:00 PM 67.8044 -72.6986 248° West  Level Estimated
Thu 03:07:00 PM 67.7564 -73.0089 248° West  Level Estimated
Thu 03:08:00 PM 67.7078 -73.3179 248° West  Level Estimated
Thu 03:09:00 PM 67.6586 -73.6256 247° West  Level Estimated
Thu 03:10:00 PM 67.6088 -73.9320 247° West  Level Estimated
Thu 03:11:00 PM 67.5585 -74.2371 247° West  Level Estimated
Thu 03:12:00 PM 67.5076 -74.5410 246° West  Level Estimated
Thu 03:13:00 PM 67.4561 -74.8435 246° West  Level Estimated
Thu 03:14:00 PM 67.4041 -75.1447 246° West  Level Estimated
Thu 03:15:00 PM 67.3515 -75.4446 246° West  Level Estimated
Thu 03:16:00 PM 67.2983 -75.7432 245° Southwest  Level Estimated
Thu 03:17:00 PM 67.2446 -76.0404 245° Southwest  Level Estimated
Thu 03:18:00 PM 67.1904 -76.3363 245° Southwest  Level Estimated
Thu 03:19:00 PM 67.1356 -76.6309 245° Southwest  Level Estimated
Thu 03:20:00 PM 67.0802 -76.9241 244° Southwest  Level Estimated
Thu 03:21:00 PM 67.0243 -77.2160 244° Southwest  Level Estimated
Thu 03:22:00 PM 66.9679 -77.5065 244° Southwest  Level Estimated
Thu 03:23:00 PM 66.9110 -77.7957 243° Southwest  Level Estimated
Thu 03:24:00 PM 66.8535 -78.0836 243° Southwest  Level Estimated
Thu 03:25:00 PM 66.7955 -78.3701 243° Southwest  Level Estimated
Thu 03:26:00 PM 66.7370 -78.6552 243° Southwest  Level Estimated
Thu 03:27:00 PM 66.6780 -78.9390 242° Southwest  Level Estimated
Thu 03:28:00 PM 66.6185 -79.2214 242° Southwest  Level Estimated
Thu 03:29:00 PM 66.5585 -79.5024 242° Southwest  Level Estimated
Thu 03:30:00 PM 66.4980 -79.7821 242° Southwest  Level Estimated
Thu 03:31:00 PM 66.4370 -80.0605 241° Southwest  Level Estimated
Thu 03:32:00 PM 66.3754 -80.3374 241° Southwest  Level Estimated
Thu 03:33:00 PM 66.3134 -80.6131 241° Southwest  Level Estimated
Thu 03:34:00 PM 66.2510 -80.8873 241° Southwest  Level Estimated
Thu 03:35:00 PM 66.1880 -81.1602 240° Southwest  Level Estimated
Thu 03:36:00 PM 66.1245 -81.4317 240° Southwest  Level Estimated
Thu 03:37:00 PM 66.0606 -81.7019 240° Southwest  Level Estimated
Thu 03:38:00 PM 65.9962 -81.9707 240° Southwest  Level Estimated
Thu 03:39:00 PM 65.9314 -82.2382 239° Southwest  Level Estimated
Thu 03:40:00 PM 65.8660 -82.5042 239° Southwest  Level Estimated
Thu 03:41:00 PM 65.8003 -82.7690 239° Southwest  Level Estimated
Thu 03:42:00 PM 65.7340 -83.0324 239° Southwest  Level Estimated
Thu 03:43:00 PM 65.6674 -83.2944 238° Southwest  Level Estimated
Thu 03:44:00 PM 65.6002 -83.5551 238° Southwest  Level Estimated
Thu 03:45:00 PM 65.5326 -83.8144 238° Southwest  Level Estimated
Thu 03:46:00 PM 65.4646 -84.0724 238° Southwest  Level Estimated
Thu 03:47:00 PM 65.3962 -84.3290 237° Southwest  Level Estimated
Thu 03:48:00 PM 65.3273 -84.5844 237° Southwest  Level Estimated
Thu 03:49:00 PM 65.2580 -84.8383 237° Southwest  Level Estimated
Thu 03:50:00 PM 65.1882 -85.0910 237° Southwest  Level Estimated
Thu 03:51:00 PM 65.1181 -85.3423 237° Southwest  Level Estimated
Thu 03:52:00 PM 65.0475 -85.5922 236° Southwest  Level Estimated
Thu 03:53:00 PM 64.9765 -85.8409 236° Southwest  Level Estimated
Thu 03:54:00 PM 64.9051 -86.0882 236° Southwest  Level Estimated
Thu 03:55:00 PM 64.8333 -86.3343 236° Southwest  Level Estimated
Thu 03:56:00 PM 64.7610 -86.5789 235° Southwest  Level Estimated
Thu 03:57:00 PM 64.6884 -86.8223 235° Southwest  Level Estimated
Thu 03:58:00 PM 64.6154 -87.0644 235° Southwest  Level Estimated
Thu 03:59:00 PM 64.5420 -87.3052 235° Southwest  Level Estimated
Thu 04:00:00 PM 64.4682 -87.5447 235° Southwest  Level Estimated
Thu 04:01:00 PM 64.3940 -87.7829 234° Southwest  Level Estimated
Thu 04:02:00 PM 64.3194 -88.0198 234° Southwest  Level Estimated
Thu 04:03:00 PM 64.2445 -88.2555 234° Southwest  Level Estimated
Thu 04:04:00 PM 64.1692 -88.4898 234° Southwest  Level Estimated
Thu 04:05:00 PM 64.0934 -88.7229 233° Southwest  Level Estimated
Thu 04:06:00 PM 64.0174 -88.9547 233° Southwest  Level Estimated
Thu 04:07:00 PM 63.9409 -89.1853 233° Southwest  Level Estimated
Thu 04:08:00 PM 63.8641 -89.4146 233° Southwest  Level Estimated
Thu 04:09:00 PM 63.7869 -89.6426 233° Southwest  Level Estimated
Thu 04:10:00 PM 63.7094 -89.8694 232° Southwest  Level Estimated
Thu 04:11:00 PM 63.6315 -90.0949 232° Southwest  Level Estimated
Thu 04:12:00 PM 63.5533 -90.3193 232° Southwest  Level Estimated
Thu 04:13:00 PM 63.4747 -90.5423 232° Southwest  Level Estimated
Thu 04:14:00 PM 63.3958 -90.7642 232° Southwest  Level Estimated
Thu 04:15:00 PM 63.3165 -90.9848 231° Southwest  Level Estimated
Thu 04:16:00 PM 63.2369 -91.2043 231° Southwest  Level Estimated
Thu 04:17:00 PM 63.1570 -91.4225 231° Southwest  Level Estimated
Thu 04:18:00 PM 63.0767 -91.6395 231° Southwest  Level Estimated
Thu 04:19:00 PM 62.9961 -91.8553 231° Southwest  Level Estimated
Thu 04:20:00 PM 62.9151 -92.0700 230° Southwest  Level Estimated
Thu 04:21:00 PM 62.8339 -92.2834 230° Southwest  Level Estimated
Thu 04:22:00 PM 62.7523 -92.4957 230° Southwest  Level Estimated
Thu 04:23:00 PM 62.6704 -92.7068 230° Southwest  Level Estimated
Thu 04:24:00 PM 62.5882 -92.9167 230° Southwest  Level Estimated
Thu 04:25:00 PM 62.5057 -93.1255 229° Southwest  Level Estimated
Thu 04:26:00 PM 62.4229 -93.3331 229° Southwest  Level Estimated
Thu 04:27:00 PM 62.3397 -93.5395 229° Southwest  Level Estimated
Thu 04:28:00 PM 62.2563 -93.7449 229° Southwest  Level Estimated
Thu 04:29:00 PM 62.1725 -93.9490 229° Southwest  Level Estimated
Thu 04:30:00 PM 62.0885 -94.1521 229° Southwest  Level Estimated
Thu 04:31:00 PM 62.0041 -94.3540 228° Southwest  Level Estimated
Thu 04:32:00 PM 61.9195 -94.5548 228° Southwest  Level Estimated
Thu 04:33:00 PM 61.8345 -94.7545 228° Southwest  Level Estimated
Thu 04:34:00 PM 61.7493 -94.9531 228° Southwest  Level Estimated
Thu 04:35:00 PM 61.6638 -95.1506 228° Southwest  Level Estimated
Thu 04:36:00 PM 61.5781 -95.3470 228° Southwest  Level Estimated
Thu 04:37:00 PM 61.4920 -95.5424 227° Southwest  Level Estimated
Thu 04:38:00 PM 61.4057 -95.7366 227° Southwest  Level Estimated
Thu 04:39:00 PM 61.3190 -95.9298 227° Southwest  Level Estimated
Thu 04:40:00 PM 61.2322 -96.1219 227° Southwest  Level Estimated
Thu 04:40:43 PM 62.1833 -102.3000 226° Southwest 470 541 43,000  Level Edmonton Center
Thu 04:41:00 PM 61.1450 -96.3129 227° Southwest  Level Estimated
Thu 04:41:43 PM 62.1000 -102.5333 233° Southwest 480 552 43,000  Level Edmonton Center
Thu 04:42:00 PM 61.0576 -96.5029 226° Southwest  Level Estimated
Thu 04:42:43 PM 62.0333 -102.7500 237° Southwest 480 552 43,000  Level Edmonton Center
Thu 04:43:00 PM 60.9699 -96.6918 226° Southwest  Level Estimated
Thu 04:43:43 PM 61.9500 -102.9667 231° Southwest 480 552 43,000  Level Edmonton Center
Thu 04:44:00 PM 60.8819 -96.8798 226° Southwest  Level Estimated
Thu 04:44:43 PM 61.8500 -103.2000 228° Southwest 480 552 43,000  Level Edmonton Center
Thu 04:45:00 PM 60.7937 -97.0666 226° Southwest  Level Estimated
Thu 04:45:43 PM 61.7667 -103.4167 231° Southwest 470 541 43,000  Level Edmonton Center
Thu 04:46:00 PM 60.7052 -97.2525 226° Southwest  Level Estimated
Thu 04:46:43 PM 61.6833 -103.6333 231° Southwest 480 552 43,000  Level Edmonton Center
Thu 04:47:43 PM 61.5833 -103.8167 221° Southwest 480 552 43,000  Level Edmonton Center
Thu 04:48:43 PM 61.4833 -104.0333 226° Southwest 470 541 43,000  Level Edmonton Center
Thu 04:49:43 PM 61.4000 -104.2167 227° Southwest 470 541 43,000  Level Edmonton Center
Thu 04:50:43 PM 61.2833 -104.4333 222° Southwest 480 552 43,000  Level Edmonton Center
Thu 04:51:43 PM 61.2000 -104.6000 224° Southwest 480 552 43,000  Level Edmonton Center
Thu 04:52:43 PM 61.1000 -104.8167 226° Southwest 480 552 43,000  Level Edmonton Center
Thu 04:53:43 PM 61.0000 -105.0000 222° Southwest 480 552 43,000  Level Edmonton Center
Thu 04:54:43 PM 60.8833 -105.2000 220° Southwest 480 552 43,000  Level Edmonton Center
Thu 04:55:43 PM 60.8000 -105.3667 224° Southwest 480 552 43,000 200 Level Edmonton Center
Thu 04:56:43 PM 60.7000 -105.5833 227° Southwest 480 552 43,400 400 Climbing Edmonton Center
Thu 04:57:43 PM 60.6000 -105.7500 219° Southwest 490 564 43,800 550 Climbing Edmonton Center
Thu 04:58:43 PM 60.5000 -105.9500 225° Southwest 490 564 44,500 700 Climbing Edmonton Center
Thu 04:59:43 PM 60.4167 -106.1333 227° Southwest 480 552 45,200 600 Climbing Edmonton Center
Thu 05:00:43 PM 60.3000 -106.3333 220° Southwest 480 552 45,700 500 Climbing Edmonton Center
Thu 05:01:43 PM 60.2000 -106.5000 220° Southwest 480 552 46,200 500 Climbing Edmonton Center
Thu 05:02:43 PM 60.1000 -106.7000 225° Southwest 480 552 46,700 267 Climbing Edmonton Center
Thu 05:04:00 PM 59.9552 -106.8593 209° Southwest  Level FlightAware Approximate
Thu 05:04:43 PM 59.8833 -107.0500 209° Southwest 480 552 47,000  Level Edmonton Center
Thu 05:05:43 PM 59.8000 -107.2500 230° Southwest 480 552 47,000  Level Edmonton Center
Thu 05:06:43 PM 59.7000 -107.4167 220° Southwest 480 552 47,000  Level Edmonton Center
Thu 05:07:43 PM 59.6000 -107.6000 223° Southwest 480 552 47,000  Level Edmonton Center
Thu 05:08:43 PM 59.5000 -107.7667 220° Southwest 470 541 47,000  Level Edmonton Center
Thu 05:09:43 PM 59.4000 -107.9333 220° Southwest 470 541 47,000  Level Edmonton Center
Thu 05:10:43 PM 59.3000 -108.1167 223° Southwest 470 541 47,000  Level Edmonton Center
Thu 05:11:43 PM 59.2000 -108.2667 218° Southwest 470 541 47,000  Level Edmonton Center
Thu 05:12:43 PM 59.1000 -108.4667 226° Southwest 470 541 47,000  Level Edmonton Center
Thu 05:13:43 PM 58.9833 -108.6500 219° Southwest 470 541 47,000  Level Edmonton Center
Thu 05:14:43 PM 58.8833 -108.8000 218° Southwest 470 541 47,000  Level Edmonton Center
Thu 05:15:43 PM 58.8000 -108.9500 223° Southwest 470 541 47,000  Level Edmonton Center
Thu 05:16:43 PM 58.6833 -109.1333 219° Southwest 470 541 47,000  Level Edmonton Center
Thu 05:17:43 PM 58.5833 -109.2833 218° Southwest 470 541 47,000  Level Edmonton Center
Thu 05:18:43 PM 58.4833 -109.4667 224° Southwest 470 541 47,000  Level Edmonton Center
Thu 05:19:43 PM 58.3833 -109.6167 218° Southwest 470 541 47,000  Level Edmonton Center
Thu 05:20:43 PM 58.2500 -109.7333 205° Southwest 470 541 47,000  Level Edmonton Center
Thu 05:21:43 PM 58.1333 -109.8500 208° Southwest 470 541 47,000  Level Edmonton Center
Thu 05:22:43 PM 58.0167 -109.9667 208° Southwest 470 541 47,000  Level Edmonton Center
Thu 05:23:43 PM 57.8833 -110.0667 202° Southwest 470 541 47,000  Level Edmonton Center
Thu 05:24:43 PM 57.7833 -110.1833 212° Southwest 470 541 47,000  Level Edmonton Center
Thu 05:25:43 PM 57.6333 -110.2833 200° South 470 541 47,000  Level Edmonton Center
Thu 05:26:43 PM 57.5333 -110.3667 204° Southwest 470 541 47,000  Level Edmonton Center
Thu 05:27:43 PM 57.4167 -110.4833 208° Southwest 480 552 47,000  Level Edmonton Center
Thu 05:28:43 PM 57.2833 -110.5833 202° Southwest 480 552 47,000  Level Edmonton Center
Thu 05:29:43 PM 57.1667 -110.6833 205° Southwest 480 552 47,000  Level Edmonton Center
Thu 05:30:43 PM 57.0333 -110.8000 205° Southwest 480 552 47,000  Level Edmonton Center
Thu 05:31:43 PM 56.9167 -110.9000 205° Southwest 470 541 47,000  Level Edmonton Center
Thu 05:32:43 PM 56.7833 -111.0000 202° Southwest 470 541 47,000  Level Edmonton Center
Thu 05:33:43 PM 56.6833 -111.1167 213° Southwest 470 541 47,000  Level Edmonton Center
Thu 05:34:43 PM 56.5667 -111.2167 205° Southwest 470 541 47,000  Level Edmonton Center
Thu 05:35:43 PM 56.4333 -111.3167 203° Southwest 480 552 47,000  Level Edmonton Center
Thu 05:36:43 PM 56.3167 -111.4167 205° Southwest 470 541 47,000  Level Edmonton Center
Thu 05:37:43 PM 56.2000 -111.5167 206° Southwest 470 541 47,000  Level Edmonton Center
Thu 05:38:43 PM 56.0833 -111.6167 206° Southwest 470 541 47,000  Level Edmonton Center
Thu 05:39:43 PM 55.9500 -111.7167 203° Southwest 470 541 47,000  Level Edmonton Center
Thu 05:40:43 PM 55.8333 -111.8167 206° Southwest 470 541 47,000  Level Edmonton Center
Thu 05:41:43 PM 55.7167 -111.9167 206° Southwest 460 529 47,000  Level Edmonton Center
Thu 05:42:43 PM 55.6000 -112.0167 206° Southwest 460 529 47,000  Level Edmonton Center
Thu 05:43:43 PM 55.4833 -112.1167 206° Southwest 460 529 47,000  Level Edmonton Center
Thu 05:44:43 PM 55.3667 -112.1833 198° South 460 529 47,000  Level Edmonton Center
Thu 05:45:43 PM 55.2500 -112.2833 206° Southwest 460 529 47,000  Level Edmonton Center
Thu 05:46:43 PM 55.1333 -112.3833 206° Southwest 460 529 47,000  Level Edmonton Center
Thu 05:47:43 PM 55.0000 -112.4833 203° Southwest 460 529 47,000  Level Edmonton Center
Thu 05:48:43 PM 54.9000 -112.5667 206° Southwest 460 529 47,000  Level Edmonton Center
Thu 05:49:43 PM 54.7667 -112.6667 203° Southwest 460 529 47,000  Level Edmonton Center
Thu 05:50:43 PM 54.6667 -112.7667 210° Southwest 460 529 47,000  Level Edmonton Center
Thu 05:51:43 PM 54.5333 -112.8500 200° South 470 541 47,000  Level Edmonton Center
Thu 05:52:43 PM 54.4167 -112.9500 207° Southwest 470 541 47,000  Level Edmonton Center
Thu 05:53:43 PM 54.2833 -113.0333 200° South 470 541 47,000  Level Edmonton Center
Thu 05:54:43 PM 54.1667 -113.1333 207° Southwest 470 541 47,000  Level Edmonton Center
Thu 05:55:43 PM 54.0500 -113.2167 203° Southwest 470 541 47,000  Level Edmonton Center
Thu 05:56:43 PM 53.9333 -113.3167 207° Southwest 470 541 47,000  Level Edmonton Center
Thu 05:57:43 PM 53.8000 -113.4000 200° South 470 541 47,000  Level Edmonton Center
Thu 05:58:43 PM 53.7000 -113.5000 211° Southwest 480 552 47,000  Level Edmonton Center
Thu 05:59:43 PM 53.5667 -113.6167 207° Southwest 480 552 47,000  Level Edmonton Center
Thu 06:00:43 PM 53.4333 -113.7000 200° South 480 552 47,000  Level Edmonton Center
Thu 06:01:43 PM 53.3167 -113.7833 203° Southwest 480 552 47,000  Level Edmonton Center
Thu 06:02:43 PM 53.1833 -113.8667 201° Southwest 480 552 47,000  Level Edmonton Center
Thu 06:03:43 PM 53.0667 -113.9667 207° Southwest 470 541 47,000  Level Edmonton Center
Thu 06:04:43 PM 52.9500 -114.0167 194° South 470 541 47,000  Level Edmonton Center
Thu 06:05:43 PM 52.8333 -114.1000 203° Southwest 470 541 47,000  Level Edmonton Center
Thu 06:06:43 PM 52.7000 -114.1833 201° Southwest 470 541 47,000  Level Edmonton Center
Thu 06:07:43 PM 52.5833 -114.2667 203° Southwest 470 541 47,000  Level Edmonton Center
Thu 06:08:43 PM 52.4500 -114.3500 201° Southwest 460 529 47,000  Level Edmonton Center
Thu 06:09:43 PM 52.3500 -114.4500 211° Southwest 460 529 47,000  Level Edmonton Center
Thu 06:10:43 PM 52.2167 -114.5000 193° South 460 529 47,000  Level Edmonton Center
Thu 06:11:43 PM 52.1000 -114.5833 204° Southwest 470 541 47,000  Level Edmonton Center
Thu 06:12:43 PM 51.9667 -114.6667 201° Southwest 470 541 47,000  Level Edmonton Center
Thu 06:13:43 PM 51.8333 -114.7500 201° Southwest 470 541 47,000  Level Edmonton Center
Thu 06:14:43 PM 51.7333 -114.8000 197° South 470 541 47,000  Level Edmonton Center
Thu 06:15:43 PM 51.5833 -114.8833 199° South 470 541 47,000  Level Edmonton Center
Thu 06:16:43 PM 51.4833 -114.9667 207° Southwest 460 529 47,000  Level Edmonton Center
Thu 06:17:43 PM 51.3500 -115.0500 201° Southwest 470 541 47,000  Level Edmonton Center
Thu 06:18:43 PM 51.2333 -115.1167 200° South 470 541 47,000  Level Edmonton Center
Thu 06:19:43 PM 51.1167 -115.1833 200° South 470 541 47,000  Level Edmonton Center
Thu 06:20:43 PM 50.9833 -115.2500 197° South 470 541 47,000  Level Edmonton Center
Thu 06:21:43 PM 50.8667 -115.3333 204° Southwest 480 552 47,000  Level Edmonton Center
Thu 06:22:43 PM 50.7500 -115.4167 204° Southwest 480 552 47,000  Level Edmonton Center
Thu 06:23:43 PM 50.6167 -115.4833 198° South 480 552 47,000  Level Edmonton Center
Thu 06:24:43 PM 50.4833 -115.5667 202° Southwest 480 552 47,000  Level Edmonton Center
Thu 06:25:43 PM 50.3667 -115.6500 205° Southwest 480 552 47,000  Level Edmonton Center
Thu 06:26:43 PM 50.2333 -115.7167 198° South 480 552 47,000  Level Edmonton Center
Thu 06:27:43 PM 50.1167 -115.7667 195° South 480 552 47,000  Level Edmonton Center
Thu 06:28:43 PM 49.9833 -115.8667 206° Southwest 480 552 47,000  Level Edmonton Center
Thu 06:29:43 PM 49.8667 -115.9167 195° South 480 552 47,000  Level Edmonton Center
Thu 06:30:43 PM 49.7333 -115.9833 198° South 480 552 47,000  Level Edmonton Center
Thu 06:31:43 PM 49.6000 -116.0667 202° Southwest 470 541 47,000  Level Edmonton Center
Thu 06:32:43 PM 49.5000 -116.1500 208° Southwest 480 552 47,000  Level Edmonton Center
Thu 06:33:43 PM 49.3667 -116.2333 202° Southwest 470 541 47,000  Level Edmonton Center
Thu 06:34:43 PM 49.2500 -116.3167 205° Southwest 460 529 47,000  Level Edmonton Center
Thu 06:35:43 PM 49.1500 -116.4167 213° Southwest 470 541 47,000  Level Edmonton Center
Thu 06:36:43 PM 49.0167 -116.5167 206° Southwest 470 541 47,000  Level Edmonton Center
Thu 06:37:43 PM 48.9000 -116.6000 205° Southwest 470 541 47,000  Level Edmonton Center
Thu 06:38:43 PM 48.7833 -116.7000 209° Southwest 470 541 47,000  Level Edmonton Center
Thu 06:39:10 PM 48.7761 -116.7072 213° Southwest 473 544 47,000  Level Seattle Center
Thu 06:40:11 PM 48.6581 -116.7975 207° Southwest 475 547 47,000  Level Seattle Center
Thu 06:41:12 PM 48.5406 -116.8886 207° Southwest 477 549 47,000  Level Seattle Center
Thu 06:42:13 PM 48.4244 -116.9800 208° Southwest 475 547 47,000  Level Seattle Center
Thu 06:42:52 PM 48.3167 -117.0167 193° South 480 552 47,000  Level Vancouver Center
Thu 06:43:14 PM 48.3075 -117.0694 255° West 473 544 47,000  Level Seattle Center
Thu 06:44:15 PM 48.1894 -117.1592 207° Southwest 476 548 47,000  Level Seattle Center
Thu 06:45:16 PM 48.0714 -117.2483 207° Southwest 477 549 47,000  Level Seattle Center
Thu 06:46:17 PM 47.9542 -117.3375 207° Southwest 477 549 47,000  Level Seattle Center
Thu 06:47:18 PM 47.8119 -117.4439 207° Southwest 481 554 47,000  Level Seattle Center
Thu 06:48:19 PM 47.6942 -117.5319 207° Southwest 482 555 47,000  Level Seattle Center
Thu 06:49:20 PM 47.5739 -117.6158 205° Southwest 484 557 47,000  Level Seattle Center
Thu 06:50:21 PM 47.4431 -117.6356 186° South 479 551 47,000  Level Seattle Center
Thu 06:51:22 PM 47.3139 -117.6444 183° South 472 543 47,000  Level Seattle Center
Thu 06:52:23 PM 47.1831 -117.6547 183° South 472 543 47,000  Level Seattle Center
Thu 06:53:24 PM 47.0500 -117.6636 183° South 479 551 47,000  Level Seattle Center
Thu 06:54:25 PM 46.9186 -117.6717 182° South 474 545 47,000  Level Seattle Center
Thu 06:55:26 PM 46.7606 -117.6825 183° South 473 544 47,000  Level Seattle Center
Thu 06:56:27 PM 46.6297 -117.6942 184° South 473 544 47,000  Level Seattle Center
Thu 06:57:28 PM 46.4986 -117.7025 183° South 473 544 47,000  Level Seattle Center
Thu 06:58:29 PM 46.3664 -117.7103 182° South 477 549 47,000  Level Seattle Center
Thu 06:59:30 PM 46.2339 -117.7192 183° South 478 550 47,000 -49 Level Seattle Center
Thu 07:00:32 PM 46.0994 -117.7292 183° South 482 555 46,900  Descending Seattle Center
Thu 07:01:33 PM 45.9675 -117.7369 182° South 478 550 47,000 49 Climbing Seattle Center
Thu 07:02:34 PM 45.8361 -117.7444 182° South 473 544 47,000  Level Seattle Center
Thu 07:03:35 PM 45.7047 -117.7550 183° South 474 545 47,000  Level Seattle Center
Thu 07:04:36 PM 45.5522 -117.7647 183° South 470 541 47,000  Level Seattle Center
Thu 07:05:37 PM 45.4208 -117.7728 182° South 470 541 47,000  Level Seattle Center
Thu 07:06:38 PM 45.2881 -117.7819 183° South 474 545 47,000  Level Seattle Center
Thu 07:07:39 PM 45.1564 -117.7886 182° South 473 544 47,000  Level Seattle Center
Thu 07:08:43 PM 45.0142 -117.7986 183° South 475 547 47,000  Level Salt Lake Center
Thu 07:09:45 PM 44.8869 -117.8064 182° South 478 550 47,000  Level Salt Lake Center
Thu 07:10:47 PM 44.7414 -117.8125 181° South 473 544 47,000  Level Salt Lake Center
Thu 07:11:00 PM 44.7182 -117.8036 181° South  Level FlightAware Approximate
Thu 07:11:44 PM 44.6172 -117.8150 181° South 465 535 47,000  Level Seattle Center
Thu 07:12:45 PM 44.4933 -117.8183 181° South 465 535 47,000  Level Seattle Center
Thu 07:13:46 PM 44.3464 -117.8231 181° South 469 540 47,000  Level Seattle Center
Thu 07:14:47 PM 44.2208 -117.8258 181° South 472 543 47,000  Level Seattle Center
Thu 07:16:00 PM 44.0782 -117.8203 181° South  Level FlightAware Approximate
Thu 07:16:58 PM 43.9250 -117.8328 181° South 469 540 47,000  Level Salt Lake Center
Thu 07:18:00 PM 43.7992 -117.8350 181° South 473 544 47,000  Level Salt Lake Center
Thu 07:19:02 PM 43.6517 -117.8403 181° South 475 547 47,000  Level Salt Lake Center
Thu 07:20:04 PM 43.5289 -117.8439 181° South 465 535 47,000  Level Salt Lake Center
Thu 07:21:05 PM 43.3847 -117.8456 180° South 464 534 47,000  Level Salt Lake Center
Thu 07:22:07 PM 43.2597 -117.8508 182° South 469 540 47,000  Level Salt Lake Center
Thu 07:23:09 PM 43.1356 -117.8533 181° South 467 537 47,000  Level Salt Lake Center
Thu 07:24:11 PM 42.9903 -117.8569 181° South 467 537 47,000  Level Salt Lake Center
Thu 07:25:13 PM 42.8664 -117.8608 181° South 465 535 47,000  Level Salt Lake Center
Thu 07:26:15 PM 42.7206 -117.8644 181° South 469 540 47,000  Level Salt Lake Center
Thu 07:27:17 PM 42.5961 -117.8711 182° South 469 540 47,000  Level Salt Lake Center
Thu 07:28:19 PM 42.4633 -117.9458 203° Southwest 463 533 47,000  Level Salt Lake Center
Thu 07:29:21 PM 42.3533 -118.0136 204° Southwest 454 522 47,000  Level Salt Lake Center
Thu 07:30:22 PM 42.2253 -118.0903 204° Southwest 452 520 47,000  Level Salt Lake Center
Thu 07:31:24 PM 42.1094 -118.1631 205° Southwest 449 517 47,000  Level Salt Lake Center
Thu 07:32:26 PM 41.9992 -118.2294 204° Southwest 452 520 47,000  Level Salt Lake Center
Thu 07:33:28 PM 41.8725 -118.3050 204° Southwest 446 513 47,000  Level Salt Lake Center
Thu 07:34:30 PM 41.7639 -118.3703 204° Southwest 448 516 47,000  Level Salt Lake Center
Thu 07:35:32 PM 41.6547 -118.4361 204° Southwest 449 517 47,000  Level Salt Lake Center
Thu 07:36:34 PM 41.5269 -118.5103 203° Southwest 449 517 47,000  Level Salt Lake Center
Thu 07:37:36 PM 41.4186 -118.5758 204° Southwest 449 517 47,000  Level Salt Lake Center
Thu 07:38:38 PM 41.2903 -118.6511 204° Southwest 450 518 47,000  Level Salt Lake Center
Thu 07:39:40 PM 41.1808 -118.7156 204° Southwest 450 518 47,000  Level Salt Lake Center
Thu 07:40:42 PM 41.0517 -118.7900 203° Southwest 453 521 47,000  Level Salt Lake Center
Thu 07:41:44 PM 40.9392 -118.8558 204° Southwest 459 528 47,000  Level Salt Lake Center
Thu 07:42:26 PM 40.8489 -118.9089 204° Southwest 459 528 47,000  Level Oakland Center
Thu 07:43:27 PM 40.7225 -118.9833 204° Southwest 464 534 47,000  Level Oakland Center
Thu 07:44:29 PM 40.6044 -119.0503 203° Southwest 464 534 47,000 -290 Level Oakland Center
Thu 07:45:31 PM 40.4953 -119.1247 207° Southwest 448 516 46,400 -1,024 Descending Oakland Center
Thu 07:46:32 PM 40.3939 -119.2144 214° Southwest 439 505 44,900 -1,561 Descending Oakland Center
Thu 07:47:34 PM 40.2956 -119.3039 215° Southwest 434 499 43,200 -1,659 Descending Oakland Center
Thu 07:48:35 PM 40.1969 -119.3900 214° Southwest 429 494 41,500 -1,610 Descending Oakland Center
Thu 07:49:37 PM 40.1011 -119.4722 213° Southwest 416 479 39,900 -1,610 Descending Oakland Center
Thu 07:50:38 PM 40.0017 -119.5608 214° Southwest 431 496 38,200 -1,854 Descending Oakland Center
Thu 07:51:40 PM 39.8811 -119.6653 214° Southwest 435 501 36,100 -1,805 Descending Oakland Center
Thu 07:52:41 PM 39.7897 -119.7456 214° Southwest 407 468 34,500 -1,659 Descending Oakland Center
Thu 07:53:43 PM 39.6978 -119.8286 215° Southwest 406 467 32,700 -1,707 Descending Oakland Center
Thu 07:54:44 PM 39.6317 -119.9472 234° Southwest 413 475 31,000 -829 Descending Oakland Center
Thu 07:55:46 PM 39.5694 -120.0694 237° Southwest 414 476 31,000 -390 Level Oakland Center
Thu 07:56:47 PM 39.5081 -120.1908 237° Southwest 417 480 30,200 -976 Descending Oakland Center
Thu 07:57:49 PM 39.4322 -120.3394 237° Southwest 414 476 29,000 -1,854 Descending Oakland Center
Thu 07:58:50 PM 39.3722 -120.4578 237° Southwest 401 461 26,400 -2,683 Descending Oakland Center
Thu 07:59:52 PM 39.3139 -120.5697 236° Southwest 384 442 23,500 -2,927 Descending Oakland Center
Thu 08:00:53 PM 39.2525 -120.6886 236° Southwest 394 453 20,400 -3,073 Descending Oakland Center
Thu 08:01:55 PM 39.1922 -120.8058 236° Southwest 396 456 17,200 -3,073 Descending Oakland Center
Thu 08:02:56 PM 39.1358 -120.9178 237° Southwest 382 440 14,100 -2,780 Descending Oakland Center
Thu 08:03:58 PM 39.0800 -121.0247 236° Southwest 369 425 11,500 -1,839 Descending Oakland Center
Thu 08:05:00 PM 39.0328 -121.1153 236° Southwest 313 360 10,300 -1,694 Descending Oakland Center
Thu 08:05:23 PM 39.0167 -121.1667 248° West 292 336 9,100 -2,313 Descending Northern Cal TRACON
Thu 08:06:23 PM 38.9667 -121.2500 232° Southwest 287 330 7,100 -1,950 Descending Northern Cal TRACON
Thu 08:07:23 PM 38.9333 -121.3333 243° Southwest 275 316 5,200 -1,587 Descending Northern Cal TRACON
Thu 08:08:24 PM 38.9000 -121.4167 243° Southwest 265 305 3,900 -1,190 Descending Northern Cal TRACON
Thu 08:09:24 PM 38.8667 -121.5000 243° Southwest 242 278 2,800 -958 Descending Northern Cal TRACON
Thu 08:10:23 PM 38.8333 -121.5833 243° Southwest 230 265 2,000 -605 Descending Northern Cal TRACON
Thu 08:11:23 PM 38.7833 -121.6000 195° South 191 220 1,600 -600 Descending Northern Cal TRACON
Thu 08:12:23 PM 38.7500 -121.6000 180° South 137 158 800 -744 Descending Northern Cal TRACON
Thu 08:13:24 PM 38.7167 -121.6000 180° South 127 146 100 -689 Descending Northern Cal TRACON
Thu 08:15:00 PM 38.6954 -121.5908 218° Southwest  Level Estimated
Thu 08:22:00 PM 38.6954 -121.5908 218° Southwest  Level Estimated

Login

Don't have an account? Register now (free) for customized features, flight alerts, and more!